sensor_id;sensor_type;location;lat;lon;timestamp;P1;durP1;ratioP1;P2;durP2;ratioP2
908;SDS011;441;51.192;6.788;2023-03-20T00:00:06;24.10;;;23.10;;
908;SDS011;441;51.192;6.788;2023-03-20T00:02:35;23.90;;;22.80;;
908;SDS011;441;51.192;6.788;2023-03-20T00:05:08;24.33;;;23.23;;
908;SDS011;441;51.192;6.788;2023-03-20T00:07:42;23.47;;;22.47;;
908;SDS011;441;51.192;6.788;2023-03-20T00:10:09;22.80;;;21.90;;
908;SDS011;441;51.192;6.788;2023-03-20T00:12:38;22.40;;;21.40;;
908;SDS011;441;51.192;6.788;2023-03-20T00:15:07;23.80;;;22.80;;
908;SDS011;441;51.192;6.788;2023-03-20T00:17:59;24.27;;;23.23;;
908;SDS011;441;51.192;6.788;2023-03-20T00:20:26;23.73;;;22.70;;
908;SDS011;441;51.192;6.788;2023-03-20T00:22:53;22.97;;;22.03;;
908;SDS011;441;51.192;6.788;2023-03-20T00:25:22;23.40;;;22.50;;
908;SDS011;441;51.192;6.788;2023-03-20T00:27:51;23.53;;;22.63;;
908;SDS011;441;51.192;6.788;2023-03-20T00:30:19;23.77;;;22.67;;
908;SDS011;441;51.192;6.788;2023-03-20T00:32:49;25.90;;;24.80;;
908;SDS011;441;51.192;6.788;2023-03-20T00:35:17;25.07;;;24.00;;
908;SDS011;441;51.192;6.788;2023-03-20T00:37:49;23.23;;;22.23;;
908;SDS011;441;51.192;6.788;2023-03-20T00:40:16;23.73;;;22.73;;
908;SDS011;441;51.192;6.788;2023-03-20T00:42:45;23.43;;;22.43;;
908;SDS011;441;51.192;6.788;2023-03-20T00:45:16;23.33;;;22.43;;
908;SDS011;441;51.192;6.788;2023-03-20T00:47:45;22.60;;;21.80;;
908;SDS011;441;51.192;6.788;2023-03-20T00:50:17;23.43;;;22.53;;
908;SDS011;441;51.192;6.788;2023-03-20T00:52:45;22.97;;;22.07;;
908;SDS011;441;51.192;6.788;2023-03-20T00:55:13;23.27;;;22.27;;
908;SDS011;441;51.192;6.788;2023-03-20T00:57:44;22.17;;;21.37;;
908;SDS011;441;51.192;6.788;2023-03-20T01:00:34;23.00;;;21.90;;
908;SDS011;441;51.192;6.788;2023-03-20T01:03:09;22.70;;;21.70;;
908;SDS011;441;51.192;6.788;2023-03-20T01:05:38;23.13;;;22.13;;
908;SDS011;441;51.192;6.788;2023-03-20T01:08:09;22.70;;;21.80;;
908;SDS011;441;51.192;6.788;2023-03-20T01:10:40;23.60;;;22.60;;
908;SDS011;441;51.192;6.788;2023-03-20T01:13:12;22.53;;;21.73;;
908;SDS011;441;51.192;6.788;2023-03-20T01:15:44;22.57;;;21.70;;
908;SDS011;441;51.192;6.788;2023-03-20T01:18:12;23.23;;;22.23;;
908;SDS011;441;51.192;6.788;2023-03-20T01:20:40;23.97;;;23.00;;
908;SDS011;441;51.192;6.788;2023-03-20T01:23:07;22.70;;;21.80;;
908;SDS011;441;51.192;6.788;2023-03-20T01:25:35;23.17;;;22.27;;
908;SDS011;441;51.192;6.788;2023-03-20T01:28:02;22.33;;;21.47;;
908;SDS011;441;51.192;6.788;2023-03-20T01:30:38;23.13;;;22.10;;
908;SDS011;441;51.192;6.788;2023-03-20T01:33:05;24.47;;;23.57;;
908;SDS011;441;51.192;6.788;2023-03-20T01:35:39;23.90;;;22.70;;
908;SDS011;441;51.192;6.788;2023-03-20T01:38:09;24.07;;;23.07;;
908;SDS011;441;51.192;6.788;2023-03-20T01:40:40;22.40;;;21.50;;
908;SDS011;441;51.192;6.788;2023-03-20T01:43:13;22.90;;;21.90;;
908;SDS011;441;51.192;6.788;2023-03-20T01:45:46;22.80;;;21.90;;
908;SDS011;441;51.192;6.788;2023-03-20T01:48:19;23.13;;;22.23;;
908;SDS011;441;51.192;6.788;2023-03-20T01:50:49;22.90;;;22.03;;
908;SDS011;441;51.192;6.788;2023-03-20T01:53:16;23.37;;;22.47;;
908;SDS011;441;51.192;6.788;2023-03-20T01:55:46;22.67;;;21.77;;
908;SDS011;441;51.192;6.788;2023-03-20T01:58:16;22.87;;;21.90;;
908;SDS011;441;51.192;6.788;2023-03-20T02:00:49;22.87;;;21.97;;
908;SDS011;441;51.192;6.788;2023-03-20T02:03:16;23.03;;;22.03;;
908;SDS011;441;51.192;6.788;2023-03-20T02:05:44;22.93;;;21.83;;
908;SDS011;441;51.192;6.788;2023-03-20T02:08:15;22.37;;;21.47;;
908;SDS011;441;51.192;6.788;2023-03-20T02:10:47;22.80;;;21.97;;
908;SDS011;441;51.192;6.788;2023-03-20T02:13:15;23.07;;;22.17;;
908;SDS011;441;51.192;6.788;2023-03-20T02:15:56;22.20;;;21.40;;
908;SDS011;441;51.192;6.788;2023-03-20T02:18:26;23.47;;;22.57;;
908;SDS011;441;51.192;6.788;2023-03-20T02:24:05;22.57;;;21.77;;
908;SDS011;441;51.192;6.788;2023-03-20T02:27:12;23.10;;;22.10;;
908;SDS011;441;51.192;6.788;2023-03-20T02:30:04;22.87;;;21.87;;
908;SDS011;441;51.192;6.788;2023-03-20T02:39:26;23.13;;;22.23;;
908;SDS011;441;51.192;6.788;2023-03-20T02:42:07;24.10;;;22.93;;
908;SDS011;441;51.192;6.788;2023-03-20T02:44:43;23.60;;;22.70;;
908;SDS011;441;51.192;6.788;2023-03-20T02:47:17;23.47;;;22.57;;
908;SDS011;441;51.192;6.788;2023-03-20T02:49:51;22.97;;;22.07;;
908;SDS011;441;51.192;6.788;2023-03-20T02:52:24;22.67;;;21.87;;
908;SDS011;441;51.192;6.788;2023-03-20T02:55:01;23.93;;;22.90;;
908;SDS011;441;51.192;6.788;2023-03-20T02:57:41;23.10;;;22.20;;
908;SDS011;441;51.192;6.788;2023-03-20T03:00:18;21.93;;;21.13;;
908;SDS011;441;51.192;6.788;2023-03-20T03:02:55;22.43;;;21.53;;
908;SDS011;441;51.192;6.788;2023-03-20T03:05:29;22.97;;;22.07;;
908;SDS011;441;51.192;6.788;2023-03-20T03:08:01;23.60;;;22.70;;
908;SDS011;441;51.192;6.788;2023-03-20T03:10:33;22.80;;;21.80;;
908;SDS011;441;51.192;6.788;2023-03-20T03:13:03;23.83;;;22.83;;
908;SDS011;441;51.192;6.788;2023-03-20T03:15:35;22.83;;;21.93;;
908;SDS011;441;51.192;6.788;2023-03-20T03:18:06;22.63;;;21.83;;
908;SDS011;441;51.192;6.788;2023-03-20T03:20:39;23.10;;;22.10;;
908;SDS011;441;51.192;6.788;2023-03-20T03:23:09;22.93;;;21.93;;
908;SDS011;441;51.192;6.788;2023-03-20T03:25:45;23.77;;;22.73;;
908;SDS011;441;51.192;6.788;2023-03-20T03:28:14;22.10;;;21.30;;
908;SDS011;441;51.192;6.788;2023-03-20T03:30:48;23.43;;;22.53;;
908;SDS011;441;51.192;6.788;2023-03-20T03:33:18;22.03;;;21.23;;
908;SDS011;441;51.192;6.788;2023-03-20T03:35:48;22.73;;;21.83;;
908;SDS011;441;51.192;6.788;2023-03-20T03:38:25;22.10;;;21.20;;
908;SDS011;441;51.192;6.788;2023-03-20T03:41:01;22.60;;;21.70;;
908;SDS011;441;51.192;6.788;2023-03-20T03:43:40;22.67;;;21.77;;
908;SDS011;441;51.192;6.788;2023-03-20T03:46:15;22.80;;;21.90;;
908;SDS011;441;51.192;6.788;2023-03-20T03:48:47;21.97;;;21.17;;
908;SDS011;441;51.192;6.788;2023-03-20T03:51:18;21.87;;;20.97;;
908;SDS011;441;51.192;6.788;2023-03-20T03:53:49;22.70;;;21.90;;
908;SDS011;441;51.192;6.788;2023-03-20T03:56:22;23.03;;;22.13;;
908;SDS011;441;51.192;6.788;2023-03-20T03:58:53;21.83;;;21.03;;
908;SDS011;441;51.192;6.788;2023-03-20T04:01:23;22.57;;;21.67;;
908;SDS011;441;51.192;6.788;2023-03-20T04:03:54;24.03;;;22.60;;
908;SDS011;441;51.192;6.788;2023-03-20T04:06:25;24.70;;;23.70;;
908;SDS011;441;51.192;6.788;2023-03-20T04:08:52;22.83;;;22.00;;
908;SDS011;441;51.192;6.788;2023-03-20T04:11:20;23.43;;;22.43;;
908;SDS011;441;51.192;6.788;2023-03-20T04:13:50;22.97;;;22.07;;
908;SDS011;441;51.192;6.788;2023-03-20T04:16:18;22.67;;;21.73;;
908;SDS011;441;51.192;6.788;2023-03-20T04:18:46;23.57;;;22.67;;
908;SDS011;441;51.192;6.788;2023-03-20T04:21:13;23.40;;;22.50;;
908;SDS011;441;51.192;6.788;2023-03-20T04:23:40;23.10;;;22.20;;
908;SDS011;441;51.192;6.788;2023-03-20T04:26:07;23.00;;;22.10;;
908;SDS011;441;51.192;6.788;2023-03-20T04:28:36;23.33;;;22.43;;
908;SDS011;441;51.192;6.788;2023-03-20T04:31:03;23.03;;;22.13;;
908;SDS011;441;51.192;6.788;2023-03-20T04:33:30;23.60;;;22.70;;
908;SDS011;441;51.192;6.788;2023-03-20T04:35:57;23.20;;;22.20;;
908;SDS011;441;51.192;6.788;2023-03-20T04:38:24;22.70;;;21.80;;
908;SDS011;441;51.192;6.788;2023-03-20T04:40:51;22.97;;;22.00;;
908;SDS011;441;51.192;6.788;2023-03-20T04:43:18;22.90;;;21.90;;
908;SDS011;441;51.192;6.788;2023-03-20T04:45:46;22.80;;;21.93;;
908;SDS011;441;51.192;6.788;2023-03-20T04:48:13;23.20;;;22.30;;
908;SDS011;441;51.192;6.788;2023-03-20T04:50:40;23.50;;;22.60;;
908;SDS011;441;51.192;6.788;2023-03-20T04:53:10;23.20;;;22.30;;
908;SDS011;441;51.192;6.788;2023-03-20T04:55:37;23.27;;;22.37;;
908;SDS011;441;51.192;6.788;2023-03-20T04:58:04;22.67;;;21.67;;
908;SDS011;441;51.192;6.788;2023-03-20T05:00:31;22.90;;;22.00;;
908;SDS011;441;51.192;6.788;2023-03-20T05:02:59;24.23;;;23.33;;
908;SDS011;441;51.192;6.788;2023-03-20T05:05:26;23.33;;;22.40;;
908;SDS011;441;51.192;6.788;2023-03-20T05:07:53;22.97;;;21.97;;
908;SDS011;441;51.192;6.788;2023-03-20T05:10:20;23.00;;;22.10;;
908;SDS011;441;51.192;6.788;2023-03-20T05:12:47;22.77;;;21.77;;
908;SDS011;441;51.192;6.788;2023-03-20T05:15:14;23.27;;;22.10;;
908;SDS011;441;51.192;6.788;2023-03-20T05:17:42;23.60;;;22.50;;
908;SDS011;441;51.192;6.788;2023-03-20T05:20:10;25.20;;;24.00;;
908;SDS011;441;51.192;6.788;2023-03-20T05:22:37;23.17;;;22.27;;
908;SDS011;441;51.192;6.788;2023-03-20T05:25:04;23.90;;;22.90;;
908;SDS011;441;51.192;6.788;2023-03-20T05:27:32;24.77;;;23.70;;
908;SDS011;441;51.192;6.788;2023-03-20T05:29:59;23.90;;;22.90;;
908;SDS011;441;51.192;6.788;2023-03-20T05:32:25;23.93;;;22.97;;
908;SDS011;441;51.192;6.788;2023-03-20T05:34:52;24.70;;;23.60;;
908;SDS011;441;51.192;6.788;2023-03-20T05:37:20;24.13;;;23.13;;
908;SDS011;441;51.192;6.788;2023-03-20T05:39:47;24.23;;;23.23;;
908;SDS011;441;51.192;6.788;2023-03-20T05:42:14;23.80;;;22.80;;
908;SDS011;441;51.192;6.788;2023-03-20T05:44:41;24.47;;;23.27;;
908;SDS011;441;51.192;6.788;2023-03-20T05:47:08;25.83;;;24.23;;
908;SDS011;441;51.192;6.788;2023-03-20T05:49:35;29.77;;;27.77;;
908;SDS011;441;51.192;6.788;2023-03-20T05:52:02;27.93;;;26.47;;
908;SDS011;441;51.192;6.788;2023-03-20T05:54:30;26.87;;;25.37;;
908;SDS011;441;51.192;6.788;2023-03-20T05:56:57;28.17;;;26.40;;
908;SDS011;441;51.192;6.788;2023-03-20T05:59:24;27.60;;;25.43;;
908;SDS011;441;51.192;6.788;2023-03-20T06:01:51;27.10;;;25.60;;
908;SDS011;441;51.192;6.788;2023-03-20T06:04:18;27.70;;;26.20;;
908;SDS011;441;51.192;6.788;2023-03-20T06:06:44;26.10;;;24.67;;
908;SDS011;441;51.192;6.788;2023-03-20T06:09:11;26.63;;;25.10;;
908;SDS011;441;51.192;6.788;2023-03-20T06:11:40;25.17;;;23.97;;
908;SDS011;441;51.192;6.788;2023-03-20T06:14:06;25.87;;;24.57;;
908;SDS011;441;51.192;6.788;2023-03-20T06:16:33;27.10;;;25.60;;
908;SDS011;441;51.192;6.788;2023-03-20T06:19:00;26.10;;;24.80;;
908;SDS011;441;51.192;6.788;2023-03-20T06:21:27;27.40;;;26.00;;
908;SDS011;441;51.192;6.788;2023-03-20T06:23:54;27.20;;;25.90;;
908;SDS011;441;51.192;6.788;2023-03-20T06:26:22;27.30;;;26.00;;
908;SDS011;441;51.192;6.788;2023-03-20T06:28:50;26.93;;;25.50;;
908;SDS011;441;51.192;6.788;2023-03-20T06:31:17;26.57;;;25.27;;
908;SDS011;441;51.192;6.788;2023-03-20T06:33:44;26.50;;;25.20;;
908;SDS011;441;51.192;6.788;2023-03-20T06:36:11;26.77;;;25.37;;
908;SDS011;441;51.192;6.788;2023-03-20T06:38:38;27.17;;;25.97;;
908;SDS011;441;51.192;6.788;2023-03-20T06:41:05;26.33;;;24.93;;
908;SDS011;441;51.192;6.788;2023-03-20T06:43:32;26.83;;;25.60;;
908;SDS011;441;51.192;6.788;2023-03-20T06:46:00;26.10;;;24.77;;
908;SDS011;441;51.192;6.788;2023-03-20T06:48:27;27.40;;;26.00;;
908;SDS011;441;51.192;6.788;2023-03-20T06:50:54;26.13;;;24.83;;
908;SDS011;441;51.192;6.788;2023-03-20T06:53:21;26.73;;;25.33;;
908;SDS011;441;51.192;6.788;2023-03-20T06:55:48;26.60;;;25.17;;
908;SDS011;441;51.192;6.788;2023-03-20T06:58:16;26.20;;;24.90;;
908;SDS011;441;51.192;6.788;2023-03-20T07:00:43;26.40;;;25.10;;
908;SDS011;441;51.192;6.788;2023-03-20T07:03:12;26.20;;;24.83;;
908;SDS011;441;51.192;6.788;2023-03-20T07:05:39;26.13;;;24.93;;
908;SDS011;441;51.192;6.788;2023-03-20T07:08:07;27.73;;;26.43;;
908;SDS011;441;51.192;6.788;2023-03-20T07:10:34;25.60;;;24.40;;
908;SDS011;441;51.192;6.788;2023-03-20T07:13:02;26.37;;;25.07;;
908;SDS011;441;51.192;6.788;2023-03-20T07:15:29;25.97;;;24.63;;
908;SDS011;441;51.192;6.788;2023-03-20T07:17:56;26.93;;;25.63;;
908;SDS011;441;51.192;6.788;2023-03-20T07:20:24;26.00;;;24.70;;
908;SDS011;441;51.192;6.788;2023-03-20T07:22:51;25.87;;;24.57;;
908;SDS011;441;51.192;6.788;2023-03-20T07:25:19;25.73;;;24.30;;
908;SDS011;441;51.192;6.788;2023-03-20T07:27:46;26.87;;;25.53;;
908;SDS011;441;51.192;6.788;2023-03-20T07:30:15;25.30;;;24.20;;
908;SDS011;441;51.192;6.788;2023-03-20T07:32:42;27.00;;;25.30;;
908;SDS011;441;51.192;6.788;2023-03-20T07:35:09;24.70;;;23.60;;
908;SDS011;441;51.192;6.788;2023-03-20T07:37:38;24.70;;;23.60;;
908;SDS011;441;51.192;6.788;2023-03-20T07:40:06;25.80;;;24.40;;
908;SDS011;441;51.192;6.788;2023-03-20T07:42:34;25.60;;;24.50;;
908;SDS011;441;51.192;6.788;2023-03-20T07:45:01;25.50;;;24.30;;
908;SDS011;441;51.192;6.788;2023-03-20T07:47:28;25.03;;;23.93;;
908;SDS011;441;51.192;6.788;2023-03-20T07:49:54;25.40;;;24.27;;
908;SDS011;441;51.192;6.788;2023-03-20T07:52:21;24.57;;;23.37;;
908;SDS011;441;51.192;6.788;2023-03-20T07:54:50;25.47;;;24.33;;
908;SDS011;441;51.192;6.788;2023-03-20T07:57:16;25.30;;;24.00;;
908;SDS011;441;51.192;6.788;2023-03-20T07:59:43;25.60;;;24.40;;
908;SDS011;441;51.192;6.788;2023-03-20T08:02:12;25.33;;;24.03;;
908;SDS011;441;51.192;6.788;2023-03-20T08:04:40;24.67;;;23.57;;
908;SDS011;441;51.192;6.788;2023-03-20T08:07:07;24.90;;;23.80;;
908;SDS011;441;51.192;6.788;2023-03-20T08:09:34;24.50;;;23.50;;
908;SDS011;441;51.192;6.788;2023-03-20T08:12:02;25.27;;;24.17;;
908;SDS011;441;51.192;6.788;2023-03-20T08:14:30;25.17;;;23.87;;
908;SDS011;441;51.192;6.788;2023-03-20T08:16:57;24.43;;;23.23;;
908;SDS011;441;51.192;6.788;2023-03-20T08:19:23;25.20;;;24.00;;
908;SDS011;441;51.192;6.788;2023-03-20T08:21:50;24.50;;;23.40;;
908;SDS011;441;51.192;6.788;2023-03-20T08:24:17;24.43;;;23.40;;
908;SDS011;441;51.192;6.788;2023-03-20T08:26:44;25.27;;;24.07;;
908;SDS011;441;51.192;6.788;2023-03-20T08:29:12;26.60;;;25.00;;
908;SDS011;441;51.192;6.788;2023-03-20T08:31:43;25.77;;;24.53;;
908;SDS011;441;51.192;6.788;2023-03-20T08:34:10;25.37;;;23.87;;
908;SDS011;441;51.192;6.788;2023-03-20T08:36:36;25.50;;;24.10;;
908;SDS011;441;51.192;6.788;2023-03-20T08:39:05;25.60;;;24.30;;
908;SDS011;441;51.192;6.788;2023-03-20T08:41:32;25.27;;;23.60;;
908;SDS011;441;51.192;6.788;2023-03-20T08:43:59;26.43;;;25.23;;
908;SDS011;441;51.192;6.788;2023-03-20T08:46:28;26.50;;;25.20;;
908;SDS011;441;51.192;6.788;2023-03-20T08:48:55;24.70;;;23.60;;
908;SDS011;441;51.192;6.788;2023-03-20T08:51:23;26.17;;;24.47;;
908;SDS011;441;51.192;6.788;2023-03-20T08:53:50;25.40;;;24.10;;
908;SDS011;441;51.192;6.788;2023-03-20T08:56:17;25.97;;;24.53;;
908;SDS011;441;51.192;6.788;2023-03-20T08:58:43;26.00;;;24.80;;
908;SDS011;441;51.192;6.788;2023-03-20T09:01:10;26.37;;;24.97;;
908;SDS011;441;51.192;6.788;2023-03-20T09:03:40;25.63;;;24.53;;
908;SDS011;441;51.192;6.788;2023-03-20T09:06:07;25.13;;;24.03;;
908;SDS011;441;51.192;6.788;2023-03-20T09:08:35;26.03;;;24.57;;
908;SDS011;441;51.192;6.788;2023-03-20T09:11:03;25.77;;;24.50;;
908;SDS011;441;51.192;6.788;2023-03-20T09:13:31;25.40;;;24.20;;
908;SDS011;441;51.192;6.788;2023-03-20T09:15:58;24.57;;;23.47;;
908;SDS011;441;51.192;6.788;2023-03-20T09:18:24;25.97;;;24.77;;
908;SDS011;441;51.192;6.788;2023-03-20T09:20:53;24.63;;;23.33;;
908;SDS011;441;51.192;6.788;2023-03-20T09:23:21;25.10;;;23.90;;
908;SDS011;441;51.192;6.788;2023-03-20T09:25:48;24.70;;;23.60;;
908;SDS011;441;51.192;6.788;2023-03-20T09:28:15;24.87;;;23.57;;
908;SDS011;441;51.192;6.788;2023-03-20T09:30:41;25.07;;;23.97;;
908;SDS011;441;51.192;6.788;2023-03-20T09:33:09;25.07;;;23.73;;
908;SDS011;441;51.192;6.788;2023-03-20T09:35:38;24.33;;;23.30;;
908;SDS011;441;51.192;6.788;2023-03-20T09:38:07;25.00;;;23.90;;
908;SDS011;441;51.192;6.788;2023-03-20T09:40:37;24.50;;;23.30;;
908;SDS011;441;51.192;6.788;2023-03-20T09:43:17;24.70;;;23.43;;
908;SDS011;441;51.192;6.788;2023-03-20T09:45:55;25.30;;;24.07;;
908;SDS011;441;51.192;6.788;2023-03-20T09:48:32;24.50;;;23.40;;
908;SDS011;441;51.192;6.788;2023-03-20T09:51:03;24.80;;;23.67;;
908;SDS011;441;51.192;6.788;2023-03-20T09:53:43;24.90;;;23.67;;
908;SDS011;441;51.192;6.788;2023-03-20T09:56:13;24.70;;;23.43;;
908;SDS011;441;51.192;6.788;2023-03-20T09:58:43;24.50;;;23.40;;
908;SDS011;441;51.192;6.788;2023-03-20T10:01:17;24.60;;;23.60;;
908;SDS011;441;51.192;6.788;2023-03-20T10:03:48;25.33;;;24.23;;
908;SDS011;441;51.192;6.788;2023-03-20T10:06:17;25.40;;;23.93;;
908;SDS011;441;51.192;6.788;2023-03-20T10:08:46;25.27;;;23.60;;
908;SDS011;441;51.192;6.788;2023-03-20T10:11:17;24.50;;;23.37;;
908;SDS011;441;51.192;6.788;2023-03-20T10:14:06;24.30;;;23.30;;
908;SDS011;441;51.192;6.788;2023-03-20T10:16:49;24.57;;;23.47;;
908;SDS011;441;51.192;6.788;2023-03-20T10:19:27;24.57;;;23.47;;
908;SDS011;441;51.192;6.788;2023-03-20T10:22:03;25.27;;;24.00;;
908;SDS011;441;51.192;6.788;2023-03-20T10:24:38;24.70;;;23.50;;
908;SDS011;441;51.192;6.788;2023-03-20T10:27:10;24.33;;;22.93;;
908;SDS011;441;51.192;6.788;2023-03-20T10:29:45;24.60;;;23.50;;
908;SDS011;441;51.192;6.788;2023-03-20T10:32:19;24.60;;;23.50;;
908;SDS011;441;51.192;6.788;2023-03-20T10:34:56;24.37;;;23.17;;
908;SDS011;441;51.192;6.788;2023-03-20T10:37:39;25.13;;;24.03;;
908;SDS011;441;51.192;6.788;2023-03-20T10:40:26;24.57;;;23.57;;
908;SDS011;441;51.192;6.788;2023-03-20T10:42:56;24.70;;;23.70;;
908;SDS011;441;51.192;6.788;2023-03-20T10:45:33;24.73;;;23.70;;
908;SDS011;441;51.192;6.788;2023-03-20T10:48:08;25.37;;;24.03;;
908;SDS011;441;51.192;6.788;2023-03-20T10:50:41;25.83;;;24.73;;
908;SDS011;441;51.192;6.788;2023-03-20T10:53:17;25.80;;;24.60;;
908;SDS011;441;51.192;6.788;2023-03-20T10:55:52;24.93;;;23.83;;
908;SDS011;441;51.192;6.788;2023-03-20T10:58:23;24.70;;;23.67;;
908;SDS011;441;51.192;6.788;2023-03-20T11:00:53;25.60;;;24.40;;
908;SDS011;441;51.192;6.788;2023-03-20T11:03:21;25.20;;;24.00;;
908;SDS011;441;51.192;6.788;2023-03-20T11:05:51;26.17;;;24.63;;
908;SDS011;441;51.192;6.788;2023-03-20T11:08:22;24.90;;;23.67;;
908;SDS011;441;51.192;6.788;2023-03-20T11:10:59;25.50;;;24.40;;
908;SDS011;441;51.192;6.788;2023-03-20T11:13:29;24.23;;;23.13;;
908;SDS011;441;51.192;6.788;2023-03-20T11:16:06;24.83;;;23.50;;
908;SDS011;441;51.192;6.788;2023-03-20T11:18:35;24.90;;;23.80;;
908;SDS011;441;51.192;6.788;2023-03-20T11:21:07;24.53;;;23.17;;
908;SDS011;441;51.192;6.788;2023-03-20T11:23:39;24.37;;;23.17;;
908;SDS011;441;51.192;6.788;2023-03-20T11:26:10;25.63;;;24.53;;
908;SDS011;441;51.192;6.788;2023-03-20T11:28:41;25.40;;;24.30;;
908;SDS011;441;51.192;6.788;2023-03-20T11:31:16;25.23;;;24.13;;
908;SDS011;441;51.192;6.788;2023-03-20T11:33:45;25.27;;;24.10;;
908;SDS011;441;51.192;6.788;2023-03-20T11:36:20;26.00;;;24.73;;
908;SDS011;441;51.192;6.788;2023-03-20T11:38:50;26.17;;;24.77;;
908;SDS011;441;51.192;6.788;2023-03-20T11:41:22;24.80;;;23.70;;
908;SDS011;441;51.192;6.788;2023-03-20T11:43:50;26.17;;;24.80;;
908;SDS011;441;51.192;6.788;2023-03-20T11:46:18;25.07;;;23.50;;
908;SDS011;441;51.192;6.788;2023-03-20T11:48:59;25.27;;;24.20;;
908;SDS011;441;51.192;6.788;2023-03-20T11:51:30;26.00;;;24.67;;
908;SDS011;441;51.192;6.788;2023-03-20T11:53:59;24.93;;;23.73;;
908;SDS011;441;51.192;6.788;2023-03-20T11:56:30;24.50;;;23.43;;
908;SDS011;441;51.192;6.788;2023-03-20T11:59:01;25.73;;;24.50;;
908;SDS011;441;51.192;6.788;2023-03-20T12:01:36;25.00;;;23.90;;
908;SDS011;441;51.192;6.788;2023-03-20T12:04:10;24.70;;;23.60;;
908;SDS011;441;51.192;6.788;2023-03-20T12:06:48;25.67;;;24.30;;
908;SDS011;441;51.192;6.788;2023-03-20T12:09:24;25.17;;;24.03;;
908;SDS011;441;51.192;6.788;2023-03-20T12:12:12;24.30;;;23.30;;
908;SDS011;441;51.192;6.788;2023-03-20T12:14:46;25.90;;;24.33;;
908;SDS011;441;51.192;6.788;2023-03-20T12:20:11;25.00;;;23.80;;
908;SDS011;441;51.192;6.788;2023-03-20T12:22:49;24.50;;;23.20;;
908;SDS011;441;51.192;6.788;2023-03-20T12:25:23;24.20;;;23.10;;
908;SDS011;441;51.192;6.788;2023-03-20T12:27:56;24.37;;;23.20;;
908;SDS011;441;51.192;6.788;2023-03-20T12:30:31;25.13;;;24.13;;
908;SDS011;441;51.192;6.788;2023-03-20T12:33:10;24.13;;;23.13;;
908;SDS011;441;51.192;6.788;2023-03-20T12:35:44;24.70;;;23.60;;
908;SDS011;441;51.192;6.788;2023-03-20T12:38:17;25.73;;;24.43;;
908;SDS011;441;51.192;6.788;2023-03-20T12:40:52;25.60;;;24.40;;
908;SDS011;441;51.192;6.788;2023-03-20T12:43:25;25.37;;;24.23;;
908;SDS011;441;51.192;6.788;2023-03-20T12:45:55;24.40;;;23.33;;
908;SDS011;441;51.192;6.788;2023-03-20T12:48:33;24.07;;;23.07;;
908;SDS011;441;51.192;6.788;2023-03-20T12:51:15;23.80;;;22.80;;
908;SDS011;441;51.192;6.788;2023-03-20T12:53:58;24.40;;;23.40;;
908;SDS011;441;51.192;6.788;2023-03-20T12:56:44;24.63;;;23.63;;
908;SDS011;441;51.192;6.788;2023-03-20T12:59:28;24.33;;;23.33;;
908;SDS011;441;51.192;6.788;2023-03-20T13:02:08;25.13;;;24.00;;
908;SDS011;441;51.192;6.788;2023-03-20T13:04:46;24.53;;;23.33;;
908;SDS011;441;51.192;6.788;2023-03-20T13:07:24;24.03;;;22.90;;
908;SDS011;441;51.192;6.788;2023-03-20T13:10:07;25.30;;;24.10;;
908;SDS011;441;51.192;6.788;2023-03-20T13:12:46;25.10;;;24.00;;
908;SDS011;441;51.192;6.788;2023-03-20T13:15:30;24.43;;;23.43;;
908;SDS011;441;51.192;6.788;2023-03-20T13:18:07;24.70;;;23.60;;
908;SDS011;441;51.192;6.788;2023-03-20T13:20:39;24.83;;;23.53;;
908;SDS011;441;51.192;6.788;2023-03-20T13:23:17;24.50;;;23.50;;
908;SDS011;441;51.192;6.788;2023-03-20T13:25:53;24.53;;;23.53;;
908;SDS011;441;51.192;6.788;2023-03-20T13:28:30;24.50;;;23.47;;
908;SDS011;441;51.192;6.788;2023-03-20T13:31:08;24.87;;;23.83;;
908;SDS011;441;51.192;6.788;2023-03-20T13:33:46;25.10;;;23.60;;
908;SDS011;441;51.192;6.788;2023-03-20T13:36:21;25.37;;;24.07;;
908;SDS011;441;51.192;6.788;2023-03-20T13:38:56;25.77;;;24.57;;
908;SDS011;441;51.192;6.788;2023-03-20T13:41:28;24.53;;;23.50;;
908;SDS011;441;51.192;6.788;2023-03-20T13:43:57;25.10;;;23.87;;
908;SDS011;441;51.192;6.788;2023-03-20T13:46:31;24.63;;;23.63;;
908;SDS011;441;51.192;6.788;2023-03-20T13:49:01;24.80;;;23.80;;
908;SDS011;441;51.192;6.788;2023-03-20T13:51:33;25.33;;;24.23;;
908;SDS011;441;51.192;6.788;2023-03-20T13:54:17;24.93;;;23.30;;
908;SDS011;441;51.192;6.788;2023-03-20T13:56:58;23.70;;;22.70;;
908;SDS011;441;51.192;6.788;2023-03-20T13:59:39;24.47;;;23.40;;
908;SDS011;441;51.192;6.788;2023-03-20T14:02:20;25.63;;;24.07;;
908;SDS011;441;51.192;6.788;2023-03-20T14:04:59;24.17;;;23.17;;
908;SDS011;441;51.192;6.788;2023-03-20T14:07:30;24.53;;;23.53;;
908;SDS011;441;51.192;6.788;2023-03-20T14:13:00;25.30;;;24.00;;
908;SDS011;441;51.192;6.788;2023-03-20T14:15:30;24.77;;;23.47;;
908;SDS011;441;51.192;6.788;2023-03-20T14:18:03;24.83;;;23.83;;
908;SDS011;441;51.192;6.788;2023-03-20T14:20:32;23.97;;;22.93;;
908;SDS011;441;51.192;6.788;2023-03-20T14:23:01;25.20;;;23.60;;
908;SDS011;441;51.192;6.788;2023-03-20T14:25:32;24.87;;;23.67;;
908;SDS011;441;51.192;6.788;2023-03-20T14:28:05;24.50;;;23.40;;
908;SDS011;441;51.192;6.788;2023-03-20T14:30:47;24.30;;;23.30;;
908;SDS011;441;51.192;6.788;2023-03-20T14:33:28;25.00;;;23.70;;
908;SDS011;441;51.192;6.788;2023-03-20T14:36:16;25.57;;;24.10;;
908;SDS011;441;51.192;6.788;2023-03-20T14:41:53;24.80;;;23.70;;
908;SDS011;441;51.192;6.788;2023-03-20T14:44:30;23.30;;;22.40;;
908;SDS011;441;51.192;6.788;2023-03-20T14:47:16;23.93;;;22.73;;
908;SDS011;441;51.192;6.788;2023-03-20T14:49:52;24.90;;;23.80;;
908;SDS011;441;51.192;6.788;2023-03-20T14:52:36;24.27;;;23.37;;
908;SDS011;441;51.192;6.788;2023-03-20T14:55:26;24.07;;;23.00;;
908;SDS011;441;51.192;6.788;2023-03-20T14:57:56;24.20;;;23.20;;
908;SDS011;441;51.192;6.788;2023-03-20T15:00:27;23.70;;;22.80;;
908;SDS011;441;51.192;6.788;2023-03-20T15:03:01;24.20;;;23.30;;
908;SDS011;441;51.192;6.788;2023-03-20T15:05:34;24.27;;;23.37;;
908;SDS011;441;51.192;6.788;2023-03-20T15:08:03;24.40;;;23.50;;
908;SDS011;441;51.192;6.788;2023-03-20T15:10:33;24.87;;;23.87;;
908;SDS011;441;51.192;6.788;2023-03-20T15:13:03;24.73;;;23.90;;
908;SDS011;441;51.192;6.788;2023-03-20T15:15:32;24.47;;;23.50;;
908;SDS011;441;51.192;6.788;2023-03-20T15:18:02;24.20;;;23.20;;
908;SDS011;441;51.192;6.788;2023-03-20T15:20:34;24.07;;;23.17;;
908;SDS011;441;51.192;6.788;2023-03-20T15:23:01;24.70;;;23.80;;
908;SDS011;441;51.192;6.788;2023-03-20T15:25:30;24.60;;;23.50;;
908;SDS011;441;51.192;6.788;2023-03-20T15:27:59;23.37;;;22.57;;
908;SDS011;441;51.192;6.788;2023-03-20T15:30:29;22.70;;;21.73;;
908;SDS011;441;51.192;6.788;2023-03-20T15:32:59;23.60;;;22.70;;
908;SDS011;441;51.192;6.788;2023-03-20T15:35:26;24.63;;;23.42;;
908;SDS011;441;51.192;6.788;2023-03-20T15:37:55;27.93;;;26.83;;
908;SDS011;441;51.192;6.788;2023-03-20T15:40:30;27.87;;;26.57;;
908;SDS011;441;51.192;6.788;2023-03-20T15:42:58;28.90;;;27.60;;
908;SDS011;441;51.192;6.788;2023-03-20T15:45:27;27.83;;;26.50;;
908;SDS011;441;51.192;6.788;2023-03-20T15:48:00;21.30;;;20.50;;
908;SDS011;441;51.192;6.788;2023-03-20T15:50:30;24.30;;;23.40;;
908;SDS011;441;51.192;6.788;2023-03-20T15:53:00;24.40;;;23.50;;
908;SDS011;441;51.192;6.788;2023-03-20T15:55:27;23.47;;;22.67;;
908;SDS011;441;51.192;6.788;2023-03-20T15:57:55;23.90;;;22.93;;